Current Weather

Montgomery Rgnl (Dannelly Fld)

Montgomery, Alabama (KMGM)

Report from: Monday, August 15, 2022 6:53 PM CDT
Current time: Monday, August 15, 2022 7:53 PM CDT

Nearby weather
Weather history
Weather forecast

Temperature30.6°C (87.1°F)
Heat index34.2°C (93.6°F)
Dew point22.2°C (72.0°F)
Winds 5 kts (2.6 m/s, 5.8 mph) West-Southwest (240°)
Visibility10 mi. (16.1 km)
Clouds Sky clear
Altimeter29.85 in.Hg (1011 mB)
Relative humidity61 %
Density altitude2,227 ft. (679 m)
Sea-level pressure101.1 kPa (1011 mB, 29.84 in.Hg)
Max temp last 6 hours35.6°C (96.1°F)
Min temp last 6 hours30.6°C (87.1°F)
Remarks Automated weather observing station with precipitation discriminator
Pressure falling more slowly
Flight conditions Visual Meteorological Conditions
Raw dataKMGM 152353Z 24005KT 10SM CLR 31/22 A2985 RMK AO2 SLP106 T03060222 10356 20306 56006
An error has occurred. This application may no longer respond until reloaded. Reload 🗙